Time;durP1;ratioP1;P1;durP2;ratioP2;P2;SDS_P1;SDS_P2;PMS_P1;PMS_P2;Temp;Humidity;BMP_temperature;BMP_pressure;BME280_temperature;BME280_humidity;BME280_pressure;Samples;Min_cycle;Max_cycle;Signal;HPM_P1;HPM_P2
2021/11/28 00:02:26;;;;;;;23.15;16.25;;;6.30;99.90;;;;;;4956038;28;20536;-75
2021/11/28 00:04:53;;;;;;;27.45;16.77;;;6.50;99.90;;;;;;4955925;28;20170;-76
2021/11/28 00:15:01;;;;;;;25.70;15.82;;;6.40;99.90;;;;;;4973406;28;20188;-76
2021/11/28 00:17:27;;;;;;;27.42;16.45;;;6.40;99.90;;;;;;4976528;28;20186;-75
2021/11/28 00:19:53;;;;;;;31.50;16.40;;;6.60;99.90;;;;;;4977069;28;20170;-75
2021/11/28 00:22:19;;;;;;;27.23;15.82;;;6.60;99.90;;;;;;4976630;28;20264;-75
2021/11/28 00:24:44;;;;;;;23.52;14.52;;;6.50;99.90;;;;;;4977077;28;20178;-75
2021/11/28 00:27:10;;;;;;;25.88;15.70;;;6.50;99.90;;;;;;4976881;28;20194;-76
2021/11/28 00:29:36;;;;;;;24.70;15.60;;;6.60;99.90;;;;;;4976840;28;20293;-76
2021/11/28 00:32:02;;;;;;;27.42;16.20;;;6.60;99.90;;;;;;4976771;28;20668;-76
2021/11/28 00:34:27;;;;;;;24.70;16.02;;;6.60;99.90;;;;;;4976885;28;20170;-76
2021/11/28 00:36:53;;;;;;;25.20;15.32;;;6.60;99.90;;;;;;4976666;28;20555;-75
2021/11/28 00:39:19;;;;;;;25.65;16.70;;;6.60;99.90;;;;;;4976458;28;20224;-75
2021/11/28 00:41:45;;;;;;;28.92;15.50;;;6.70;99.90;;;;;;4976500;28;20174;-75
2021/11/28 00:44:11;;;;;;;24.02;15.32;;;6.60;99.90;;;;;;4976537;28;20190;-76
2021/11/28 00:46:37;;;;;;;27.85;15.32;;;6.70;99.90;;;;;;4976345;28;20190;-76
2021/11/28 00:49:10;;;;;;;25.23;15.60;;;6.60;99.90;;;;;;4976609;28;20261;-76
2021/11/28 00:51:47;;;;;;;21.88;15.40;;;6.70;99.90;;;;;;4958832;28;20214;-76
2021/11/28 00:54:14;;;;;;;24.92;15.63;;;6.70;99.90;;;;;;4976473;28;20173;-75
2021/11/28 00:56:40;;;;;;;21.67;14.23;;;6.80;99.90;;;;;;4976084;28;20710;-76
2021/11/28 00:59:06;;;;;;;24.30;14.95;;;6.80;99.90;;;;;;4976553;28;20165;-74
2021/11/28 01:01:33;;;;;;;24.00;15.93;;;6.60;99.90;;;;;;4976255;28;20174;-75
2021/11/28 01:03:59;;;;;;;27.75;15.02;;;6.70;99.90;;;;;;4976404;28;20248;-75
2021/11/28 01:06:25;;;;;;;27.88;15.52;;;6.90;99.90;;;;;;4976181;28;20632;-74
2021/11/28 01:08:50;;;;;;;23.02;15.02;;;6.90;99.90;;;;;;4975986;28;20682;-75
2021/11/28 01:11:16;;;;;;;23.45;15.23;;;6.80;99.90;;;;;;4975620;28;20209;-75
2021/11/28 01:13:42;;;;;;;26.10;16.35;;;6.90;99.90;;;;;;4975956;28;20694;-75
2021/11/28 01:16:08;;;;;;;21.17;15.00;;;7.00;99.90;;;;;;4958375;28;20249;-75
2021/11/28 01:18:34;;;;;;;21.55;14.30;;;6.90;99.90;;;;;;4975973;28;20166;-77
2021/11/28 01:21:02;;;;;;;21.23;14.40;;;6.70;99.90;;;;;;4975856;28;20178;-75
2021/11/28 01:23:28;;;;;;;20.55;12.98;;;6.50;99.90;;;;;;4975814;28;20205;-75
2021/11/28 01:25:54;;;;;;;23.73;15.52;;;6.60;99.90;;;;;;4975873;28;20209;-75
2021/11/28 01:28:20;;;;;;;23.05;15.35;;;6.80;99.90;;;;;;4975136;28;20158;-75
2021/11/28 01:30:46;;;;;;;19.10;14.25;;;6.90;99.90;;;;;;4975752;28;20172;-76
2021/11/28 01:33:12;;;;;;;23.60;15.05;;;6.80;99.90;;;;;;4974303;28;20651;-75
2021/11/28 01:35:38;;;;;;;20.50;13.30;;;6.90;99.90;;;;;;4958244;28;20269;-80
2021/11/28 01:38:04;;;;;;;21.90;14.20;;;6.90;99.90;;;;;;4976171;28;20657;-77
2021/11/28 01:40:31;;;;;;;20.58;13.27;;;6.80;99.90;;;;;;4975822;28;20180;-81
2021/11/28 01:43:10;;;;;;;17.98;13.43;;;6.80;99.90;;;;;;4958527;28;20568;-77
2021/11/28 01:45:36;;;;;;;23.95;14.00;;;6.80;99.90;;;;;;4975605;28;20189;-76
2021/11/28 01:48:06;;;;;;;20.38;13.63;;;6.80;99.90;;;;;;4975710;28;20571;-77
2021/11/28 01:50:35;;;;;;;15.80;11.98;;;6.60;99.90;;;;;;4958363;28;20580;-80
2021/11/28 01:53:04;;;;;;;19.70;13.00;;;6.60;99.90;;;;;;4975800;28;20197;-81
2021/11/28 01:55:31;;;;;;;19.40;13.25;;;6.50;99.90;;;;;;4975315;28;20185;-82
2021/11/28 01:57:59;;;;;;;28.50;12.85;;;6.60;99.90;;;;;;4975302;28;20169;-75
2021/11/28 02:00:29;;;;;;;25.77;13.07;;;6.50;99.90;;;;;;4975302;28;20583;-81
2021/11/28 02:02:57;;;;;;;22.40;12.30;;;6.50;99.90;;;;;;4975317;28;20173;-79
2021/11/28 02:05:23;;;;;;;19.23;11.85;;;6.50;99.90;;;;;;4975601;28;20186;-80
2021/11/28 02:07:50;;;;;;;25.70;12.07;;;6.60;99.90;;;;;;4975202;28;20197;-78
2021/11/28 02:10:17;;;;;;;17.95;11.98;;;6.70;99.90;;;;;;4957554;28;20550;-82
2021/11/28 02:12:45;;;;;;;18.70;11.52;;;6.70;99.90;;;;;;4975391;28;20210;-76
2021/11/28 02:15:14;;;;;;;22.23;11.55;;;6.50;99.90;;;;;;4983576;28;20166;-76
2021/11/28 02:17:39;;;;;;;17.85;10.57;;;6.70;99.90;;;;;;4984797;28;20169;-80
2021/11/28 02:20:07;;;;;;;20.73;9.20;;;6.70;99.90;;;;;;4975406;28;20165;-81
2021/11/28 02:22:33;;;;;;;20.52;9.85;;;6.60;99.90;;;;;;4974660;28;20244;-81
2021/11/28 02:25:04;;;;;;;22.85;10.50;;;6.70;99.90;;;;;;4975085;28;20261;-78
2021/11/28 02:27:29;;;;;;;13.20;9.70;;;6.70;99.90;;;;;;4975403;28;20191;-83
2021/11/28 02:29:55;;;;;;;14.75;10.23;;;6.80;99.90;;;;;;4974654;28;20663;-76
2021/11/28 02:32:21;;;;;;;18.27;10.02;;;6.70;99.90;;;;;;4974525;28;20217;-83
2021/11/28 02:34:46;;;;;;;11.73;10.15;;;6.50;99.90;;;;;;4974746;28;20170;-77
2021/11/28 02:37:12;;;;;;;23.20;11.52;;;6.50;99.90;;;;;;4957281;28;20228;-79
2021/11/28 02:39:38;;;;;;;18.17;11.98;;;6.10;99.90;;;;;;4974400;28;20169;-81
2021/11/28 02:42:04;;;;;;;20.10;12.35;;;6.10;99.90;;;;;;4973484;28;20177;-80
2021/11/28 02:44:32;;;;;;;17.88;11.98;;;6.00;99.90;;;;;;4974827;28;20233;-81
2021/11/28 02:46:58;;;;;;;20.27;11.45;;;6.00;99.90;;;;;;4974347;28;20185;-75
2021/11/28 02:49:23;;;;;;;18.50;12.07;;;6.10;99.90;;;;;;4974455;28;20170;-79
2021/11/28 02:51:49;;;;;;;26.13;14.10;;;6.10;99.90;;;;;;4973659;28;20214;-76
2021/11/28 02:54:15;;;;;;;19.80;14.18;;;6.10;99.90;;;;;;4974376;28;20249;-78
2021/11/28 02:56:43;;;;;;;32.03;17.92;;;6.00;99.90;;;;;;4974270;28;20194;-80
2021/11/28 02:59:09;;;;;;;33.53;18.02;;;5.90;99.90;;;;;;4974505;28;20162;-76
2021/11/28 03:01:34;;;;;;;32.72;18.77;;;5.90;99.90;;;;;;4974645;28;20244;-82
2021/11/28 03:04:00;;;;;;;34.67;19.95;;;5.70;99.90;;;;;;4974496;28;20568;-83
2021/11/28 03:06:26;;;;;;;35.08;20.70;;;5.70;99.90;;;;;;4974316;28;20756;-82
2021/11/28 03:08:52;;;;;;;36.80;20.95;;;5.70;99.90;;;;;;4974126;28;20201;-81
2021/11/28 03:11:18;;;;;;;41.30;21.45;;;5.80;99.90;;;;;;4974203;28;20202;-76
2021/11/28 03:13:46;;;;;;;43.17;21.58;;;5.70;99.90;;;;;;4974133;28;20184;-81
2021/11/28 03:16:17;;;;;;;48.35;23.52;;;5.80;99.90;;;;;;4973919;28;20550;-77
2021/11/28 03:18:43;;;;;;;48.55;23.13;;;5.90;99.90;;;;;;4973936;28;20256;-78
2021/11/28 03:21:14;;;;;;;50.85;23.75;;;5.90;99.90;;;;;;4973868;28;20257;-75
2021/11/28 03:23:42;;;;;;;47.50;24.80;;;5.80;99.90;;;;;;4973876;28;20185;-75
2021/11/28 03:26:14;;;;;;;52.47;25.58;;;6.00;99.90;;;;;;4973691;28;20660;-78
2021/11/28 03:28:58;;;;;;;50.55;24.98;;;6.00;99.90;;;;;;4973883;28;20601;-75
2021/11/28 03:31:26;;;;;;;43.35;23.65;;;5.90;99.90;;;;;;4956355;28;20205;-79
2021/11/28 03:33:53;;;;;;;57.25;24.08;;;5.90;99.90;;;;;;4973874;28;20169;-82
2021/11/28 03:36:22;;;;;;;42.50;21.95;;;5.90;99.90;;;;;;4956413;28;20222;-75
2021/11/28 03:38:49;;;;;;;49.33;23.85;;;5.70;99.90;;;;;;4973863;28;20645;-81
2021/11/28 03:41:17;;;;;;;44.70;22.02;;;5.60;99.90;;;;;;4973560;28;20180;-78
2021/11/28 03:43:44;;;;;;;47.78;23.55;;;5.70;99.90;;;;;;4973922;28;20158;-75
2021/11/28 03:46:10;;;;;;;48.78;22.20;;;5.90;99.90;;;;;;4973416;28;20543;-75
2021/11/28 03:48:37;;;;;;;43.97;22.88;;;5.80;99.90;;;;;;4973701;28;20201;-77
2021/11/28 03:51:03;;;;;;;39.50;21.23;;;5.70;99.90;;;;;;4957161;28;20201;-79
2021/11/28 03:53:29;;;;;;;42.75;22.20;;;5.70;99.90;;;;;;4977706;28;20212;-79
2021/11/28 03:55:55;;;;;;;36.78;22.98;;;5.70;99.90;;;;;;4977594;28;20225;-77
2021/11/28 03:58:21;;;;;;;40.67;22.77;;;5.70;99.90;;;;;;4977524;28;20166;-76
2021/11/28 04:00:47;;;;;;;44.85;22.83;;;5.70;99.90;;;;;;4977462;28;20169;-82
2021/11/28 04:03:13;;;;;;;41.28;22.58;;;5.80;99.90;;;;;;4977477;28;20173;-81
2021/11/28 04:05:40;;;;;;;40.28;20.75;;;5.90;99.90;;;;;;4977306;28;20197;-77
2021/11/28 04:08:06;;;;;;;35.65;19.38;;;5.80;99.90;;;;;;4977507;28;20632;-77
2021/11/28 04:10:32;;;;;;;44.10;23.23;;;5.70;99.90;;;;;;4977359;28;20173;-83
2021/11/28 04:12:58;;;;;;;44.47;21.60;;;5.60;99.90;;;;;;4976169;28;20256;-80
2021/11/28 04:15:24;;;;;;;43.22;22.50;;;5.70;99.90;;;;;;4959835;28;20186;-77
2021/11/28 04:17:50;;;;;;;39.45;19.92;;;5.60;99.90;;;;;;4977177;28;20173;-79
2021/11/28 04:20:16;;;;;;;43.22;20.10;;;5.60;99.90;;;;;;4977215;28;20171;-76
2021/11/28 04:22:42;;;;;;;34.08;18.58;;;5.80;99.90;;;;;;4959584;28;20671;-77
2021/11/28 04:25:10;;;;;;;35.72;19.63;;;5.80;99.90;;;;;;4977021;28;20170;-77
2021/11/28 04:27:36;;;;;;;39.65;19.60;;;5.70;99.90;;;;;;4960018;28;20541;-79
2021/11/28 04:30:04;;;;;;;42.50;18.02;;;5.60;99.90;;;;;;4976987;28;20154;-78
2021/11/28 04:32:30;;;;;;;37.65;18.60;;;5.80;99.90;;;;;;4959644;28;20338;-78
2021/11/28 04:34:55;;;;;;;39.42;18.85;;;5.90;99.90;;;;;;4977053;28;20179;-75
2021/11/28 04:37:21;;;;;;;32.13;18.65;;;5.60;99.90;;;;;;4980217;28;20638;-76
2021/11/28 04:39:47;;;;;;;32.17;18.27;;;5.60;99.90;;;;;;4980413;28;20256;-77
2021/11/28 04:42:13;;;;;;;32.80;18.65;;;5.60;99.90;;;;;;4977249;28;20182;-78
2021/11/28 04:44:39;;;;;;;29.75;17.23;;;5.60;99.90;;;;;;4976915;28;20173;-77
2021/11/28 04:47:04;;;;;;;30.08;17.80;;;5.60;99.90;;;;;;4976538;28;20594;-79
2021/11/28 04:49:30;;;;;;;32.70;17.27;;;5.60;99.90;;;;;;4976576;28;20177;-77
2021/11/28 04:51:56;;;;;;;32.38;17.52;;;5.60;99.90;;;;;;4976354;28;20206;-78
2021/11/28 04:54:22;;;;;;;28.55;16.13;;;5.90;99.90;;;;;;4976712;28;20644;-85
2021/11/28 04:56:48;;;;;;;31.80;16.52;;;6.20;99.90;;;;;;4976741;28;20193;-83
2021/11/28 04:59:14;;;;;;;28.27;16.27;;;6.20;99.90;;;;;;4975483;28;20173;-83
2021/11/28 05:01:40;;;;;;;31.23;15.52;;;6.20;99.90;;;;;;4976245;28;20200;-78
2021/11/28 05:04:05;;;;;;;25.85;16.67;;;6.10;99.90;;;;;;4975282;28;20210;-78
2021/11/28 05:06:31;;;;;;;28.40;15.15;;;5.80;99.90;;;;;;4976202;28;20195;-75
2021/11/28 05:08:57;;;;;;;32.10;15.98;;;5.70;99.90;;;;;;4976453;28;20169;-75
2021/11/28 05:11:22;;;;;;;30.92;17.10;;;5.40;99.90;;;;;;4975958;28;20206;-78
2021/11/28 05:13:48;;;;;;;36.08;16.65;;;5.40;99.90;;;;;;4975827;28;20166;-75
2021/11/28 05:16:14;;;;;;;26.17;14.60;;;5.30;99.90;;;;;;4976215;28;20308;-79
2021/11/28 05:18:39;;;;;;;30.23;16.35;;;5.50;99.90;;;;;;4976045;28;20216;-77
2021/11/28 05:21:05;;;;;;;28.77;15.95;;;5.50;99.90;;;;;;4975619;28;20174;-78
2021/11/28 05:23:31;;;;;;;27.38;14.70;;;5.80;99.90;;;;;;4976018;28;20182;-79
2021/11/28 05:25:56;;;;;;;29.00;16.58;;;6.20;99.90;;;;;;4976234;28;20198;-76
2021/11/28 05:28:22;;;;;;;20.92;13.25;;;6.20;99.90;;;;;;4974945;28;20166;-76
2021/11/28 05:30:48;;;;;;;18.30;12.75;;;6.30;99.90;;;;;;4976299;28;20273;-76
2021/11/28 05:33:14;;;;;;;20.75;12.43;;;6.40;99.90;;;;;;4975777;28;20182;-78
2021/11/28 05:35:40;;;;;;;23.65;12.27;;;6.40;99.90;;;;;;4975989;28;20186;-83
2021/11/28 05:38:06;;;;;;;27.30;12.15;;;6.40;99.90;;;;;;4975947;28;20189;-80
2021/11/28 05:40:31;;;;;;;19.00;11.18;;;6.40;99.90;;;;;;4958380;28;20318;-80
2021/11/28 05:42:57;;;;;;;15.77;11.75;;;6.30;99.90;;;;;;4975737;28;20253;-82
2021/11/28 05:45:25;;;;;;;17.30;11.45;;;6.10;99.90;;;;;;4975813;28;20190;-78
2021/11/28 05:47:52;;;;;;;18.35;11.73;;;6.30;99.90;;;;;;4975845;28;20170;-80
2021/11/28 05:50:21;;;;;;;19.45;10.73;;;6.20;99.90;;;;;;4975673;28;20576;-78
2021/11/28 05:52:48;;;;;;;16.65;11.60;;;6.00;99.90;;;;;;4975191;28;20202;-76
2021/11/28 05:55:14;;;;;;;17.08;11.05;;;5.90;99.90;;;;;;4975367;28;20174;-82
2021/11/28 05:57:40;;;;;;;15.68;9.52;;;6.10;99.90;;;;;;4975338;28;20213;-79
2021/11/28 06:00:09;;;;;;;17.50;10.60;;;6.00;99.90;;;;;;4958016;28;20212;-78
2021/11/28 06:02:36;;;;;;;15.90;9.75;;;5.70;99.90;;;;;;4975093;28;20170;-82
2021/11/28 06:05:03;;;;;;;13.65;9.60;;;5.60;99.90;;;;;;4976687;28;20166;-80
2021/11/28 06:07:28;;;;;;;12.05;9.38;;;5.60;99.90;;;;;;4976612;28;20212;-80
2021/11/28 06:09:54;;;;;;;11.23;7.97;;;5.50;99.90;;;;;;4976708;28;20173;-82
2021/11/28 06:12:20;;;;;;;15.25;8.18;;;5.60;99.90;;;;;;4976895;28;20208;-76
2021/11/28 06:14:45;;;;;;;11.73;7.65;;;5.50;99.90;;;;;;4975860;28;20170;-78
2021/11/28 06:17:11;;;;;;;10.00;7.13;;;5.50;99.90;;;;;;4974564;28;20581;-81
2021/11/28 06:19:37;;;;;;;12.88;8.10;;;5.80;99.90;;;;;;4974852;28;20170;-76
2021/11/28 06:22:03;;;;;;;10.45;7.40;;;5.80;99.90;;;;;;4974910;28;20209;-75
2021/11/28 06:24:28;;;;;;;13.00;8.30;;;5.90;99.90;;;;;;4974408;28;20181;-78
2021/11/28 06:26:54;;;;;;;11.65;8.30;;;5.90;99.90;;;;;;4974547;28;20198;-77
2021/11/28 06:29:19;;;;;;;14.10;7.85;;;5.90;99.90;;;;;;4974563;28;20173;-75
2021/11/28 06:31:45;;;;;;;9.73;7.15;;;6.00;99.90;;;;;;4974418;28;20233;-80
2021/11/28 06:34:10;;;;;;;12.52;8.50;;;6.20;99.90;;;;;;4974572;28;20628;-76
2021/11/28 06:36:36;;;;;;;11.25;8.02;;;6.20;99.90;;;;;;4973158;28;20240;-77
2021/11/28 06:39:02;;;;;;;10.85;8.18;;;6.40;99.90;;;;;;4974403;28;20177;-76
2021/11/28 06:41:28;;;;;;;11.57;8.20;;;6.10;99.90;;;;;;4974780;28;20632;-75
2021/11/28 06:43:55;;;;;;;10.63;7.75;;;6.10;99.90;;;;;;4974995;28;20178;-76
2021/11/28 06:46:21;;;;;;;12.85;8.52;;;6.10;99.90;;;;;;4974571;28;20304;-77
2021/11/28 06:48:47;;;;;;;14.15;9.50;;;6.10;99.90;;;;;;4957019;28;20208;-77
2021/11/28 06:51:13;;;;;;;11.60;8.75;;;6.00;99.90;;;;;;4974037;28;20542;-80
2021/11/28 06:53:38;;;;;;;14.30;8.45;;;6.00;99.90;;;;;;4974317;28;20181;-81
2021/11/28 06:56:04;;;;;;;12.63;9.02;;;6.00;99.90;;;;;;4974069;28;20194;-81
2021/11/28 06:58:35;;;;;;;13.63;9.02;;;6.10;99.90;;;;;;4976928;28;20533;-79
2021/11/28 07:01:01;;;;;;;12.57;9.35;;;6.20;99.90;;;;;;4989375;28;20257;-83
2021/11/28 07:03:27;;;;;;;13.05;9.30;;;6.00;99.90;;;;;;4974550;28;20588;-78
2021/11/28 07:05:53;;;;;;;14.85;9.32;;;6.20;99.90;;;;;;4974093;28;20649;-80
2021/11/28 07:08:19;;;;;;;15.90;10.30;;;6.50;99.90;;;;;;4973842;28;20521;-76
2021/11/28 07:10:45;;;;;;;18.02;11.63;;;6.60;99.90;;;;;;4974085;28;20181;-82
2021/11/28 07:13:11;;;;;;;13.50;9.73;;;6.50;99.90;;;;;;4974084;28;20178;-82
2021/11/28 07:15:38;;;;;;;14.15;9.75;;;6.30;99.90;;;;;;4974346;28;20248;-82
2021/11/28 07:18:04;;;;;;;18.83;9.88;;;6.30;99.90;;;;;;4974258;28;20174;-83
2021/11/28 07:20:32;;;;;;;16.23;10.25;;;6.30;99.90;;;;;;4973719;28;20198;-83
2021/11/28 07:23:01;;;;;;;19.73;10.65;;;6.30;99.90;;;;;;4973887;28;20220;-79
2021/11/28 07:25:28;;;;;;;14.55;10.48;;;6.20;99.90;;;;;;4973487;28;20643;-83
2021/11/28 07:27:55;;;;;;;13.95;10.40;;;6.20;99.90;;;;;;4956304;28;20646;-78
2021/11/28 07:30:21;;;;;;;18.08;10.35;;;6.20;99.90;;;;;;4973701;28;20647;-81
2021/11/28 07:32:47;;;;;;;16.23;11.75;;;6.30;99.90;;;;;;4973647;28;20232;-80
2021/11/28 07:35:13;;;;;;;18.65;11.35;;;6.20;99.90;;;;;;4974043;28;20170;-79
2021/11/28 07:37:39;;;;;;;17.02;10.90;;;6.20;99.90;;;;;;4974038;28;20853;-87
2021/11/28 07:40:05;;;;;;;16.98;11.68;;;6.20;99.90;;;;;;4974308;28;20625;-83
2021/11/28 07:42:31;;;;;;;18.20;10.93;;;6.40;99.90;;;;;;4974274;28;20181;-79
2021/11/28 07:44:57;;;;;;;19.67;11.18;;;6.20;99.90;;;;;;4974051;28;20162;-79
2021/11/28 07:47:23;;;;;;;15.68;10.48;;;6.00;99.90;;;;;;4973855;28;20204;-85
2021/11/28 07:49:48;;;;;;;19.70;12.52;;;6.00;99.90;;;;;;4973963;28;20620;-84
2021/11/28 07:52:14;;;;;;;23.08;12.23;;;6.10;99.90;;;;;;4973687;28;20213;-79
2021/11/28 07:54:40;;;;;;;18.95;12.35;;;6.20;99.90;;;;;;4973921;28;20174;-79
2021/11/28 07:57:06;;;;;;;22.02;13.50;;;6.00;99.90;;;;;;4973709;28;20194;-83
2021/11/28 07:59:35;;;;;;;22.77;12.48;;;6.30;99.90;;;;;;4974029;28;20249;-82
2021/11/28 08:02:02;;;;;;;23.75;12.32;;;6.50;99.90;;;;;;4973566;28;20178;-82
2021/11/28 08:04:28;;;;;;;27.10;13.27;;;6.40;99.90;;;;;;4973624;28;20162;-83
2021/11/28 08:06:58;;;;;;;20.65;13.43;;;6.60;99.90;;;;;;4973501;28;20525;-82
2021/11/28 08:09:24;;;;;;;17.48;11.68;;;6.80;99.90;;;;;;4973953;28;20162;-79
2021/11/28 08:11:50;;;;;;;25.20;14.25;;;6.80;99.90;;;;;;4973633;28;20341;-84
2021/11/28 08:14:17;;;;;;;22.75;13.45;;;6.80;99.90;;;;;;4973746;28;20174;-83
2021/11/28 08:16:43;;;;;;;30.10;15.18;;;6.70;99.90;;;;;;4973254;28;20205;-81
2021/11/28 08:19:09;;;;;;;26.52;13.80;;;6.90;99.90;;;;;;4956618;28;20162;-82
2021/11/28 08:21:35;;;;;;;24.63;15.15;;;7.10;99.90;;;;;;4973866;28;20173;-77
2021/11/28 08:24:05;;;;;;;29.55;16.40;;;7.10;99.90;;;;;;4972421;28;20186;-76
2021/11/28 08:26:32;;;;;;;26.63;14.32;;;7.10;99.90;;;;;;4972533;28;20194;-76
2021/11/28 08:28:58;;;;;;;31.67;14.07;;;7.00;99.90;;;;;;4955196;28;20833;-77
2021/11/28 08:31:24;;;;;;;22.77;14.20;;;7.20;99.90;;;;;;4973099;28;20284;-78
2021/11/28 08:33:50;;;;;;;30.02;15.65;;;7.10;99.90;;;;;;4971871;28;20178;-78
2021/11/28 08:36:19;;;;;;;28.08;15.23;;;7.30;99.90;;;;;;4955435;28;20306;-76
2021/11/28 08:38:45;;;;;;;24.25;14.82;;;7.10;99.90;;;;;;4958700;28;20260;-75
2021/11/28 08:41:13;;;;;;;25.88;14.70;;;7.20;99.90;;;;;;4976625;28;20177;-77
2021/11/28 08:43:40;;;;;;;28.30;15.77;;;7.00;99.90;;;;;;4976638;28;20176;-76
2021/11/28 08:46:06;;;;;;;26.13;14.77;;;6.90;99.90;;;;;;4976505;28;20186;-77
2021/11/28 08:48:32;;;;;;;26.80;16.02;;;7.10;99.90;;;;;;4976170;28;20193;-77
2021/11/28 08:50:58;;;;;;;24.35;14.75;;;7.20;99.90;;;;;;4958934;28;20228;-77
2021/11/28 08:53:24;;;;;;;24.10;14.23;;;7.30;99.90;;;;;;4976564;28;20174;-79
2021/11/28 08:55:49;;;;;;;24.08;14.82;;;7.30;99.90;;;;;;4976248;28;20206;-75
2021/11/28 08:58:16;;;;;;;29.02;15.38;;;7.30;99.90;;;;;;4976219;28;20262;-79
2021/11/28 09:00:42;;;;;;;23.10;14.80;;;7.30;99.90;;;;;;4975664;28;20576;-76
2021/11/28 09:03:07;;;;;;;33.55;15.52;;;7.40;99.90;;;;;;4976205;28;20176;-75
2021/11/28 09:05:33;;;;;;;31.05;15.82;;;7.50;99.90;;;;;;4975549;28;20194;-76
2021/11/28 09:08:00;;;;;;;23.33;13.98;;;7.70;99.90;;;;;;4976208;28;20193;-84
2021/11/28 09:10:27;;;;;;;27.02;15.27;;;7.70;99.90;;;;;;4976100;28;20166;-77
2021/11/28 09:12:53;;;;;;;32.17;17.30;;;7.80;99.90;;;;;;4975843;28;20679;-78
2021/11/28 09:15:20;;;;;;;33.97;17.90;;;7.80;99.90;;;;;;4974501;28;20208;-79
2021/11/28 09:17:51;;;;;;;31.02;16.25;;;7.80;99.90;;;;;;4976714;28;20170;-79
2021/11/28 09:20:20;;;;;;;22.73;14.85;;;7.90;99.90;;;;;;4961509;28;20170;-79
2021/11/28 09:25:16;;;;;;;23.58;14.52;;;7.60;99.90;;;;;;4975876;28;20174;-77
2021/11/28 09:27:46;;;;;;;23.38;13.57;;;7.90;99.90;;;;;;4976097;28;20531;-78
2021/11/28 09:30:14;;;;;;;25.83;14.57;;;8.00;99.90;;;;;;4975497;28;20162;-79
2021/11/28 09:32:40;;;;;;;22.23;14.93;;;7.80;99.90;;;;;;4975303;28;20529;-78
2021/11/28 09:35:05;;;;;;;21.13;14.88;;;8.00;99.90;;;;;;4975639;28;20651;-79
2021/11/28 09:37:32;;;;;;;24.25;13.88;;;7.90;99.90;;;;;;4958008;28;20176;-80
2021/11/28 09:39:59;;;;;;;25.70;14.75;;;7.90;99.90;;;;;;4958363;28;20659;-80
2021/11/28 09:42:36;;;;;;;27.23;15.07;;;8.00;99.90;;;;;;4975437;28;20185;-79
2021/11/28 09:45:02;;;;;;;22.90;14.75;;;8.10;99.90;;;;;;4975523;28;20663;-78
2021/11/28 09:47:30;;;;;;;19.80;13.45;;;8.30;99.90;;;;;;4975580;28;20177;-78
2021/11/28 09:49:57;;;;;;;18.73;12.43;;;8.50;99.90;;;;;;4974373;28;20174;-80
2021/11/28 09:52:25;;;;;;;19.23;13.63;;;8.40;99.90;;;;;;4976642;28;20194;-80
2021/11/28 09:54:56;;;;;;;20.08;12.27;;;8.40;99.90;;;;;;4959779;28;20261;-78
2021/11/28 09:57:22;;;;;;;19.83;12.75;;;8.50;99.90;;;;;;4974720;28;20817;-78
2021/11/28 09:59:49;;;;;;;20.48;12.57;;;8.40;99.90;;;;;;4973988;28;20170;-78
2021/11/28 10:02:28;;;;;;;21.50;12.73;;;8.50;99.90;;;;;;4974874;28;20166;-78
2021/11/28 10:04:56;;;;;;;19.63;12.57;;;8.60;99.90;;;;;;4957529;28;20166;-81
2021/11/28 10:07:22;;;;;;;19.52;12.82;;;8.60;99.90;;;;;;4974795;28;20245;-77
2021/11/28 10:09:49;;;;;;;17.77;11.45;;;8.60;99.90;;;;;;4974809;28;20197;-80
2021/11/28 10:12:21;;;;;;;15.75;11.55;;;8.50;99.90;;;;;;4974368;28;20563;-79
2021/11/28 10:15:02;;;;;;;17.08;11.77;;;8.40;99.90;;;;;;4957455;28;20651;-77
2021/11/28 10:17:31;;;;;;;19.05;12.75;;;8.30;99.90;;;;;;4975288;28;20184;-78
2021/11/28 10:19:58;;;;;;;16.33;10.90;;;8.30;99.90;;;;;;4975720;28;20174;-79
2021/11/28 10:22:26;;;;;;;16.52;12.52;;;8.10;99.90;;;;;;4957498;28;20252;-80
2021/11/28 10:24:53;;;;;;;17.15;12.50;;;8.20;99.90;;;;;;4957486;28;20263;-77
2021/11/28 10:27:30;;;;;;;17.17;12.90;;;8.30;99.90;;;;;;4974555;28;20214;-79
2021/11/28 10:29:55;;;;;;;19.13;12.48;;;8.40;99.90;;;;;;4975261;28;20616;-79
2021/11/28 10:32:24;;;;;;;19.35;12.57;;;8.30;99.90;;;;;;4975372;28;20220;-79
2021/11/28 10:34:50;;;;;;;20.05;13.05;;;8.50;99.90;;;;;;4957326;28;20971;-81
2021/11/28 10:37:19;;;;;;;20.98;13.48;;;8.40;99.90;;;;;;4974209;28;20213;-77
2021/11/28 10:39:44;;;;;;;16.75;12.63;;;8.20;99.90;;;;;;4974850;28;20208;-77
2021/11/28 10:42:31;;;;;;;19.55;12.32;;;8.20;99.90;;;;;;4974938;28;20629;-80
2021/11/28 10:45:11;;;;;;;19.30;12.98;;;8.10;99.90;;;;;;4974470;28;20177;-77
2021/11/28 10:47:52;;;;;;;19.20;13.30;;;8.20;99.90;;;;;;4973642;28;20224;-77
2021/11/28 10:50:33;;;;;;;17.15;12.98;;;8.20;99.90;;;;;;4973992;28;20173;-76
2021/11/28 10:53:01;;;;;;;16.98;13.40;;;8.20;99.90;;;;;;4973839;28;20644;-77
2021/11/28 10:55:35;;;;;;;17.75;13.40;;;8.50;99.90;;;;;;4974389;28;20193;-81
2021/11/28 10:58:10;;;;;;;17.83;13.32;;;8.40;99.90;;;;;;4974325;28;20165;-78
2021/11/28 11:00:39;;;;;;;18.05;12.40;;;8.20;99.90;;;;;;4973922;28;20161;-76
2021/11/28 11:03:14;;;;;;;14.93;12.23;;;8.20;99.90;;;;;;4974181;28;20177;-76
2021/11/28 11:05:40;;;;;;;16.98;11.57;;;7.90;99.90;;;;;;4973825;28;20197;-76
2021/11/28 11:08:06;;;;;;;18.77;10.48;;;8.00;99.90;;;;;;4973873;28;20254;-75
2021/11/28 11:10:35;;;;;;;18.63;13.52;;;7.90;99.90;;;;;;4974035;28;20245;-75
2021/11/28 11:13:05;;;;;;;13.90;11.68;;;7.90;99.90;;;;;;4974009;28;20213;-78
2021/11/28 11:15:31;;;;;;;16.25;11.63;;;7.80;99.90;;;;;;4973829;28;20194;-77
2021/11/28 11:17:59;;;;;;;11.50;9.73;;;7.90;99.90;;;;;;4973914;28;20517;-77
2021/11/28 11:20:27;;;;;;;10.57;8.75;;;7.80;99.90;;;;;;4973964;28;20161;-77
2021/11/28 11:22:53;;;;;;;10.10;8.05;;;7.50;99.90;;;;;;4956311;28;20549;-77
2021/11/28 11:25:20;;;;;;;13.32;9.02;;;7.30;99.90;;;;;;4973364;28;20248;-77
2021/11/28 11:27:46;;;;;;;10.00;9.02;;;7.30;99.90;;;;;;4972903;28;20569;-77
2021/11/28 11:30:14;;;;;;;10.52;9.43;;;7.30;99.90;;;;;;4972217;28;20174;-77
2021/11/28 11:32:46;;;;;;;11.77;9.40;;;7.30;99.90;;;;;;4955881;28;20214;-77
2021/11/28 11:35:22;;;;;;;13.95;10.13;;;7.40;99.90;;;;;;4973375;28;20161;-77
2021/11/28 11:37:49;;;;;;;12.02;9.10;;;7.30;99.90;;;;;;4975434;28;20177;-79
2021/11/28 11:40:17;;;;;;;12.43;10.13;;;7.20;99.90;;;;;;4973311;28;20229;-79
2021/11/28 11:42:45;;;;;;;18.00;11.38;;;7.20;99.90;;;;;;4972966;28;20169;-77
2021/11/28 11:45:16;;;;;;;20.75;10.52;;;7.20;99.90;;;;;;4955923;28;20173;-78
2021/11/28 11:47:43;;;;;;;15.52;9.98;;;7.50;99.90;;;;;;4973426;28;20525;-77
2021/11/28 11:50:11;;;;;;;13.13;11.00;;;7.50;99.90;;;;;;4973447;28;20180;-77
2021/11/28 11:52:38;;;;;;;13.77;11.30;;;7.50;99.90;;;;;;4955864;28;20575;-79
2021/11/28 11:55:08;;;;;;;12.82;10.90;;;7.70;99.90;;;;;;4972843;28;20189;-78
2021/11/28 11:57:54;;;;;;;12.52;10.15;;;7.70;99.90;;;;;;4972993;28;20177;-78
2021/11/28 12:00:31;;;;;;;14.32;9.43;;;7.80;99.90;;;;;;4933228;28;20181;-80
2021/11/28 12:02:57;;;;;;;10.77;9.30;;;7.70;99.90;;;;;;4973538;28;20180;-78
2021/11/28 12:05:26;;;;;;;8.25;7.45;;;7.70;99.90;;;;;;4973264;28;20202;-79
2021/11/28 12:07:57;;;;;;;6.88;5.45;;;7.60;99.90;;;;;;4974192;28;20205;-77
2021/11/28 12:10:26;;;;;;;4.60;4.20;;;7.30;99.90;;;;;;4972806;28;20539;-78
2021/11/28 12:12:52;;;;;;;6.90;3.85;;;7.00;99.90;;;;;;4974808;28;20214;-78
2021/11/28 12:15:25;;;;;;;3.58;3.28;;;6.50;99.90;;;;;;4959551;28;20333;-78
2021/11/28 12:17:52;;;;;;;6.53;3.42;;;6.50;99.90;;;;;;4976756;28;20511;-78
2021/11/28 12:20:44;;;;;;;4.45;3.53;;;6.60;99.90;;;;;;4976821;28;20165;-78
2021/11/28 12:23:54;;;;;;;4.13;3.55;;;6.90;99.90;;;;;;4959270;28;20255;-78
2021/11/28 12:26:25;;;;;;;3.45;3.17;;;7.10;99.90;;;;;;4976421;28;20260;-78
2021/11/28 12:28:52;;;;;;;3.95;3.65;;;7.20;99.90;;;;;;4959505;28;20185;-77
2021/11/28 12:31:32;;;;;;;4.63;4.22;;;7.10;99.90;;;;;;4976841;28;20205;-78
2021/11/28 12:34:02;;;;;;;5.07;4.68;;;7.10;99.90;;;;;;4976848;28;20184;-80
2021/11/28 12:36:34;;;;;;;5.10;4.65;;;7.20;99.90;;;;;;4976252;28;20189;-78
2021/11/28 12:39:08;;;;;;;8.10;4.55;;;7.00;99.90;;;;;;4976724;28;20182;-78
2021/11/28 12:41:46;;;;;;;4.60;4.20;;;6.80;99.90;;;;;;4976404;28;20286;-78
2021/11/28 12:44:12;;;;;;;5.03;4.63;;;6.70;99.90;;;;;;4958395;28;20633;-77
2021/11/28 12:46:42;;;;;;;5.47;4.97;;;6.70;99.90;;;;;;4959597;28;20265;-78
2021/11/28 12:49:27;;;;;;;5.03;4.60;;;6.60;99.90;;;;;;4959690;28;20218;-80
2021/11/28 12:51:55;;;;;;;4.72;4.32;;;6.70;99.90;;;;;;4976559;28;20535;-79
2021/11/28 12:54:28;;;;;;;5.00;4.60;;;6.50;99.90;;;;;;4975981;28;20162;-77